Flight Number: EUR1533 Duration: 1:30
Departure: Barra Airport (EGPR) at 08:15 Distance: 272 Nm
Arrival: Liverpool Airport (EGGP) at 09:45 Equipment: B1900D

Weather Information
404 Not Found

Not Found

The requested URL /data/observations/metar/decoded/EGPR.TXT was not found on this server.


Sunrise: 06:18 Sunset: 18:26 (UTC)

Liverpool Airport , United Kingdom (EGGP) 53-20N 002-51W Sep 21, 2017 - 09:50 AM EDT / 2017.09.21 1350 UTC
Wind: from the WNW (290 degrees) at 14 MPH (12 KT):0
Visibility: greater than 7 mile(s):0
Sky conditions: mostly cloudy Temperature: 59 F (15 C) Dew Point: 53 F (12 C) Relative Humidity: 82% Pressure (altimeter): 29.91 in. Hg (1013 hPa)
ob: EGGP 211350Z 29012KT 9999 FEW020 BKN034 15/12 Q1013 cycle: 14
Sunrise: 06:00 Sunset: 18:07 (UTC)

TAF:2017/09/21 12:15 TAF EGGP 211101Z 2112/2212 26012KT 9999 SCT020 TEMPO 2112/2115 6000 RA BKN012 PROB30 TEMPO 2115/2117 8000 -RA BECMG 2118/2121 VRB02KT BECMG 2203/2206 16012KT

Previous Pireps for this route
Date Aircraft Flight time Fuel used Landing rate On time
2015-05-09B1900D01.391005-381Charter
2016-02-28B1900D01.12981-386Yes
2016-10-11B1900D01.121066-181No
(pireps marked green are flown by you)

Route map